sensor_id;sensor_type;location;lat;lon;timestamp;P1;durP1;ratioP1;P2;durP2;ratioP2
9459;SDS011;4768;42.664;23.240;2023-03-13T00:02:26;5.17;;;3.63;;
9459;SDS011;4768;42.664;23.240;2023-03-13T00:04:52;4.90;;;3.60;;
9459;SDS011;4768;42.664;23.240;2023-03-13T00:07:19;3.63;;;3.20;;
9459;SDS011;4768;42.664;23.240;2023-03-13T00:09:47;4.27;;;3.37;;
9459;SDS011;4768;42.664;23.240;2023-03-13T00:12:14;4.50;;;3.20;;
9459;SDS011;4768;42.664;23.240;2023-03-13T00:14:42;4.23;;;3.30;;
9459;SDS011;4768;42.664;23.240;2023-03-13T00:17:08;3.73;;;3.07;;
9459;SDS011;4768;42.664;23.240;2023-03-13T00:19:35;4.07;;;3.20;;
9459;SDS011;4768;42.664;23.240;2023-03-13T00:22:02;4.23;;;3.40;;
9459;SDS011;4768;42.664;23.240;2023-03-13T00:24:29;4.60;;;3.37;;
9459;SDS011;4768;42.664;23.240;2023-03-13T00:26:57;5.77;;;3.50;;
9459;SDS011;4768;42.664;23.240;2023-03-13T00:29:27;3.97;;;3.00;;
9459;SDS011;4768;42.664;23.240;2023-03-13T00:31:54;5.13;;;3.17;;
9459;SDS011;4768;42.664;23.240;2023-03-13T00:34:20;4.33;;;3.27;;
9459;SDS011;4768;42.664;23.240;2023-03-13T00:36:48;5.50;;;3.40;;
9459;SDS011;4768;42.664;23.240;2023-03-13T00:39:14;4.27;;;3.33;;
9459;SDS011;4768;42.664;23.240;2023-03-13T00:41:41;5.47;;;3.50;;
9459;SDS011;4768;42.664;23.240;2023-03-13T00:44:10;4.47;;;3.30;;
9459;SDS011;4768;42.664;23.240;2023-03-13T00:46:36;5.87;;;3.70;;
9459;SDS011;4768;42.664;23.240;2023-03-13T00:49:04;4.33;;;3.60;;
9459;SDS011;4768;42.664;23.240;2023-03-13T00:51:31;8.37;;;4.20;;
9459;SDS011;4768;42.664;23.240;2023-03-13T00:53:58;5.43;;;3.63;;
9459;SDS011;4768;42.664;23.240;2023-03-13T00:56:25;5.20;;;3.53;;
9459;SDS011;4768;42.664;23.240;2023-03-13T00:58:53;4.47;;;3.57;;
9459;SDS011;4768;42.664;23.240;2023-03-13T01:01:22;5.43;;;3.50;;
9459;SDS011;4768;42.664;23.240;2023-03-13T01:03:50;4.93;;;3.50;;
9459;SDS011;4768;42.664;23.240;2023-03-13T01:06:19;4.20;;;3.60;;
9459;SDS011;4768;42.664;23.240;2023-03-13T01:08:48;5.37;;;3.83;;
9459;SDS011;4768;42.664;23.240;2023-03-13T01:11:16;5.27;;;3.57;;
9459;SDS011;4768;42.664;23.240;2023-03-13T01:13:45;6.67;;;4.00;;
9459;SDS011;4768;42.664;23.240;2023-03-13T01:16:13;7.03;;;4.37;;
9459;SDS011;4768;42.664;23.240;2023-03-13T01:18:43;8.07;;;4.47;;
9459;SDS011;4768;42.664;23.240;2023-03-13T01:21:12;5.47;;;4.30;;
9459;SDS011;4768;42.664;23.240;2023-03-13T01:23:40;5.43;;;4.23;;
9459;SDS011;4768;42.664;23.240;2023-03-13T01:26:07;9.83;;;4.80;;
9459;SDS011;4768;42.664;23.240;2023-03-13T01:28:34;7.27;;;4.97;;
9459;SDS011;4768;42.664;23.240;2023-03-13T01:31:09;6.73;;;4.33;;
9459;SDS011;4768;42.664;23.240;2023-03-13T01:33:36;4.70;;;3.83;;
9459;SDS011;4768;42.664;23.240;2023-03-13T01:36:06;7.33;;;4.00;;
9459;SDS011;4768;42.664;23.240;2023-03-13T01:38:34;6.87;;;4.37;;
9459;SDS011;4768;42.664;23.240;2023-03-13T01:41:00;8.20;;;4.17;;
9459;SDS011;4768;42.664;23.240;2023-03-13T01:43:28;5.83;;;4.20;;
9459;SDS011;4768;42.664;23.240;2023-03-13T01:45:58;5.80;;;4.03;;
9459;SDS011;4768;42.664;23.240;2023-03-13T01:48:34;6.87;;;4.27;;
9459;SDS011;4768;42.664;23.240;2023-03-13T01:51:07;5.43;;;4.03;;
9459;SDS011;4768;42.664;23.240;2023-03-13T01:53:37;6.30;;;4.00;;
9459;SDS011;4768;42.664;23.240;2023-03-13T01:56:07;6.80;;;4.37;;
9459;SDS011;4768;42.664;23.240;2023-03-13T01:58:38;8.00;;;4.47;;
9459;SDS011;4768;42.664;23.240;2023-03-13T02:01:05;6.03;;;4.40;;
9459;SDS011;4768;42.664;23.240;2023-03-13T02:03:32;4.83;;;3.80;;
9459;SDS011;4768;42.664;23.240;2023-03-13T02:06:01;5.97;;;3.90;;
9459;SDS011;4768;42.664;23.240;2023-03-13T02:08:33;4.97;;;3.60;;
9459;SDS011;4768;42.664;23.240;2023-03-13T02:11:05;5.67;;;3.83;;
9459;SDS011;4768;42.664;23.240;2023-03-13T02:13:39;5.00;;;3.90;;
9459;SDS011;4768;42.664;23.240;2023-03-13T02:16:06;5.03;;;3.67;;
9459;SDS011;4768;42.664;23.240;2023-03-13T02:18:34;4.47;;;3.63;;
9459;SDS011;4768;42.664;23.240;2023-03-13T02:21:05;6.87;;;3.87;;
9459;SDS011;4768;42.664;23.240;2023-03-13T02:23:40;6.03;;;3.70;;
9459;SDS011;4768;42.664;23.240;2023-03-13T02:26:17;5.87;;;3.40;;
9459;SDS011;4768;42.664;23.240;2023-03-13T02:28:44;4.60;;;3.53;;
9459;SDS011;4768;42.664;23.240;2023-03-13T02:31:11;4.83;;;3.60;;
9459;SDS011;4768;42.664;23.240;2023-03-13T02:33:39;4.97;;;3.67;;
9459;SDS011;4768;42.664;23.240;2023-03-13T02:36:08;4.60;;;3.47;;
9459;SDS011;4768;42.664;23.240;2023-03-13T02:38:37;5.70;;;3.80;;
9459;SDS011;4768;42.664;23.240;2023-03-13T02:41:08;4.10;;;3.10;;
9459;SDS011;4768;42.664;23.240;2023-03-13T02:43:38;5.03;;;3.43;;
9459;SDS011;4768;42.664;23.240;2023-03-13T02:46:06;4.47;;;3.40;;
9459;SDS011;4768;42.664;23.240;2023-03-13T02:48:36;5.03;;;3.60;;
9459;SDS011;4768;42.664;23.240;2023-03-13T02:51:05;5.47;;;3.43;;
9459;SDS011;4768;42.664;23.240;2023-03-13T02:53:37;4.53;;;3.40;;
9459;SDS011;4768;42.664;23.240;2023-03-13T02:56:04;4.40;;;3.10;;
9459;SDS011;4768;42.664;23.240;2023-03-13T02:58:40;5.03;;;3.03;;
9459;SDS011;4768;42.664;23.240;2023-03-13T03:01:08;3.70;;;3.03;;
9459;SDS011;4768;42.664;23.240;2023-03-13T03:03:35;6.57;;;3.00;;
9459;SDS011;4768;42.664;23.240;2023-03-13T03:06:02;3.77;;;3.07;;
9459;SDS011;4768;42.664;23.240;2023-03-13T03:08:30;4.17;;;3.00;;
9459;SDS011;4768;42.664;23.240;2023-03-13T03:10:57;3.50;;;2.80;;
9459;SDS011;4768;42.664;23.240;2023-03-13T03:13:24;4.07;;;3.20;;
9459;SDS011;4768;42.664;23.240;2023-03-13T03:15:52;4.27;;;3.30;;
9459;SDS011;4768;42.664;23.240;2023-03-13T03:18:19;5.63;;;3.43;;
9459;SDS011;4768;42.664;23.240;2023-03-13T03:20:46;5.60;;;3.70;;
9459;SDS011;4768;42.664;23.240;2023-03-13T03:23:13;6.60;;;4.23;;
9459;SDS011;4768;42.664;23.240;2023-03-13T03:25:40;3.67;;;3.27;;
9459;SDS011;4768;42.664;23.240;2023-03-13T03:28:06;7.03;;;4.20;;
9459;SDS011;4768;42.664;23.240;2023-03-13T03:30:33;4.37;;;3.30;;
9459;SDS011;4768;42.664;23.240;2023-03-13T03:33:02;4.07;;;3.67;;
9459;SDS011;4768;42.664;23.240;2023-03-13T03:35:29;3.73;;;3.30;;
9459;SDS011;4768;42.664;23.240;2023-03-13T03:37:58;4.57;;;3.37;;
9459;SDS011;4768;42.664;23.240;2023-03-13T03:40:25;6.30;;;4.50;;
9459;SDS011;4768;42.664;23.240;2023-03-13T03:42:52;3.90;;;3.07;;
9459;SDS011;4768;42.664;23.240;2023-03-13T03:45:19;4.57;;;3.50;;
9459;SDS011;4768;42.664;23.240;2023-03-13T03:47:45;4.77;;;3.40;;
9459;SDS011;4768;42.664;23.240;2023-03-13T03:50:13;3.93;;;3.10;;
9459;SDS011;4768;42.664;23.240;2023-03-13T03:52:40;3.97;;;3.30;;
9459;SDS011;4768;42.664;23.240;2023-03-13T03:55:07;4.30;;;3.10;;
9459;SDS011;4768;42.664;23.240;2023-03-13T03:57:35;4.53;;;3.70;;
9459;SDS011;4768;42.664;23.240;2023-03-13T04:00:01;4.40;;;3.60;;
9459;SDS011;4768;42.664;23.240;2023-03-13T04:02:31;5.17;;;3.50;;
9459;SDS011;4768;42.664;23.240;2023-03-13T04:04:58;4.33;;;3.67;;
9459;SDS011;4768;42.664;23.240;2023-03-13T04:07:26;4.53;;;3.57;;
9459;SDS011;4768;42.664;23.240;2023-03-13T04:09:53;4.67;;;3.53;;
9459;SDS011;4768;42.664;23.240;2023-03-13T04:12:20;6.10;;;4.20;;
9459;SDS011;4768;42.664;23.240;2023-03-13T04:14:46;5.07;;;3.83;;
9459;SDS011;4768;42.664;23.240;2023-03-13T04:17:13;5.43;;;3.83;;
9459;SDS011;4768;42.664;23.240;2023-03-13T04:19:40;7.40;;;3.50;;
9459;SDS011;4768;42.664;23.240;2023-03-13T04:22:06;4.87;;;3.77;;
9459;SDS011;4768;42.664;23.240;2023-03-13T04:24:35;5.43;;;3.90;;
9459;SDS011;4768;42.664;23.240;2023-03-13T04:27:02;4.63;;;3.80;;
9459;SDS011;4768;42.664;23.240;2023-03-13T04:29:30;5.20;;;4.00;;
9459;SDS011;4768;42.664;23.240;2023-03-13T04:31:57;5.50;;;4.50;;
9459;SDS011;4768;42.664;23.240;2023-03-13T04:34:24;5.37;;;3.57;;
9459;SDS011;4768;42.664;23.240;2023-03-13T04:36:50;5.17;;;3.80;;
9459;SDS011;4768;42.664;23.240;2023-03-13T04:39:17;4.83;;;3.57;;
9459;SDS011;4768;42.664;23.240;2023-03-13T04:41:45;6.10;;;4.03;;
9459;SDS011;4768;42.664;23.240;2023-03-13T04:44:12;6.90;;;4.67;;
9459;SDS011;4768;42.664;23.240;2023-03-13T04:46:39;7.47;;;4.70;;
9459;SDS011;4768;42.664;23.240;2023-03-13T04:49:05;5.43;;;4.40;;
9459;SDS011;4768;42.664;23.240;2023-03-13T04:51:32;6.93;;;4.70;;
9459;SDS011;4768;42.664;23.240;2023-03-13T04:53:59;5.50;;;4.43;;
9459;SDS011;4768;42.664;23.240;2023-03-13T04:56:26;5.90;;;4.37;;
9459;SDS011;4768;42.664;23.240;2023-03-13T04:58:55;7.47;;;5.20;;
9459;SDS011;4768;42.664;23.240;2023-03-13T05:01:21;6.10;;;3.90;;
9459;SDS011;4768;42.664;23.240;2023-03-13T05:03:48;6.80;;;4.83;;
9459;SDS011;4768;42.664;23.240;2023-03-13T05:06:15;8.53;;;4.70;;
9459;SDS011;4768;42.664;23.240;2023-03-13T05:08:42;4.50;;;3.87;;
9459;SDS011;4768;42.664;23.240;2023-03-13T05:11:09;6.40;;;4.37;;
9459;SDS011;4768;42.664;23.240;2023-03-13T05:13:36;5.97;;;3.80;;
9459;SDS011;4768;42.664;23.240;2023-03-13T05:16:04;4.30;;;3.47;;
9459;SDS011;4768;42.664;23.240;2023-03-13T05:18:32;4.37;;;3.73;;
9459;SDS011;4768;42.664;23.240;2023-03-13T05:21:00;5.77;;;4.10;;
9459;SDS011;4768;42.664;23.240;2023-03-13T05:23:27;5.00;;;3.83;;
9459;SDS011;4768;42.664;23.240;2023-03-13T05:25:54;5.60;;;4.13;;
9459;SDS011;4768;42.664;23.240;2023-03-13T05:28:21;6.33;;;4.13;;
9459;SDS011;4768;42.664;23.240;2023-03-13T05:30:51;7.83;;;6.57;;
9459;SDS011;4768;42.664;23.240;2023-03-13T05:33:29;7.60;;;4.70;;
9459;SDS011;4768;42.664;23.240;2023-03-13T05:35:55;21.77;;;13.23;;
9459;SDS011;4768;42.664;23.240;2023-03-13T05:38:22;20.60;;;13.10;;
9459;SDS011;4768;42.664;23.240;2023-03-13T05:40:49;20.60;;;13.93;;
9459;SDS011;4768;42.664;23.240;2023-03-13T05:43:16;19.90;;;12.80;;
9459;SDS011;4768;42.664;23.240;2023-03-13T05:45:42;45.37;;;24.50;;
9459;SDS011;4768;42.664;23.240;2023-03-13T05:48:09;32.47;;;23.53;;
9459;SDS011;4768;42.664;23.240;2023-03-13T05:50:37;13.37;;;7.97;;
9459;SDS011;4768;42.664;23.240;2023-03-13T05:53:04;10.73;;;7.57;;
9459;SDS011;4768;42.664;23.240;2023-03-13T05:55:30;9.67;;;5.80;;
9459;SDS011;4768;42.664;23.240;2023-03-13T05:57:57;8.10;;;6.13;;
9459;SDS011;4768;42.664;23.240;2023-03-13T06:00:24;7.57;;;6.17;;
9459;SDS011;4768;42.664;23.240;2023-03-13T06:02:51;7.97;;;5.97;;
9459;SDS011;4768;42.664;23.240;2023-03-13T06:05:17;8.50;;;6.37;;
9459;SDS011;4768;42.664;23.240;2023-03-13T06:07:46;14.10;;;8.20;;
9459;SDS011;4768;42.664;23.240;2023-03-13T06:10:14;11.40;;;7.27;;
9459;SDS011;4768;42.664;23.240;2023-03-13T06:12:41;10.10;;;6.67;;
9459;SDS011;4768;42.664;23.240;2023-03-13T06:15:08;10.53;;;6.60;;
9459;SDS011;4768;42.664;23.240;2023-03-13T06:17:35;9.40;;;6.40;;
9459;SDS011;4768;42.664;23.240;2023-03-13T06:20:02;10.37;;;6.57;;
9459;SDS011;4768;42.664;23.240;2023-03-13T06:22:30;11.30;;;7.30;;
9459;SDS011;4768;42.664;23.240;2023-03-13T06:24:58;14.73;;;8.50;;
9459;SDS011;4768;42.664;23.240;2023-03-13T06:27:25;10.50;;;7.10;;
9459;SDS011;4768;42.664;23.240;2023-03-13T06:29:51;11.83;;;7.70;;
9459;SDS011;4768;42.664;23.240;2023-03-13T06:32:18;7.80;;;6.97;;
9459;SDS011;4768;42.664;23.240;2023-03-13T06:34:45;12.07;;;8.07;;
9459;SDS011;4768;42.664;23.240;2023-03-13T06:37:12;12.30;;;7.07;;
9459;SDS011;4768;42.664;23.240;2023-03-13T06:39:38;12.17;;;9.50;;
9459;SDS011;4768;42.664;23.240;2023-03-13T06:42:07;14.00;;;9.27;;
9459;SDS011;4768;42.664;23.240;2023-03-13T06:44:34;12.40;;;9.93;;
9459;SDS011;4768;42.664;23.240;2023-03-13T06:47:00;18.90;;;11.83;;
9459;SDS011;4768;42.664;23.240;2023-03-13T06:49:27;11.23;;;8.10;;
9459;SDS011;4768;42.664;23.240;2023-03-13T06:51:55;10.40;;;7.57;;
9459;SDS011;4768;42.664;23.240;2023-03-13T06:54:22;10.67;;;7.60;;
9459;SDS011;4768;42.664;23.240;2023-03-13T06:56:49;10.37;;;7.10;;
9459;SDS011;4768;42.664;23.240;2023-03-13T06:59:17;12.13;;;7.83;;
9459;SDS011;4768;42.664;23.240;2023-03-13T07:01:44;12.10;;;8.37;;
9459;SDS011;4768;42.664;23.240;2023-03-13T07:04:11;12.67;;;7.53;;
9459;SDS011;4768;42.664;23.240;2023-03-13T07:06:39;13.70;;;8.60;;
9459;SDS011;4768;42.664;23.240;2023-03-13T07:09:05;10.00;;;7.60;;
9459;SDS011;4768;42.664;23.240;2023-03-13T07:11:33;11.53;;;7.97;;
9459;SDS011;4768;42.664;23.240;2023-03-13T07:14:00;10.53;;;7.87;;
9459;SDS011;4768;42.664;23.240;2023-03-13T07:16:28;10.73;;;7.27;;
9459;SDS011;4768;42.664;23.240;2023-03-13T07:18:54;9.47;;;6.27;;
9459;SDS011;4768;42.664;23.240;2023-03-13T07:21:21;10.97;;;7.10;;
9459;SDS011;4768;42.664;23.240;2023-03-13T07:23:48;9.20;;;6.43;;
9459;SDS011;4768;42.664;23.240;2023-03-13T07:26:15;11.77;;;8.27;;
9459;SDS011;4768;42.664;23.240;2023-03-13T07:28:42;14.27;;;9.67;;
9459;SDS011;4768;42.664;23.240;2023-03-13T07:31:09;18.40;;;9.90;;
9459;SDS011;4768;42.664;23.240;2023-03-13T07:33:39;13.37;;;9.40;;
9459;SDS011;4768;42.664;23.240;2023-03-13T07:36:06;13.20;;;9.37;;
9459;SDS011;4768;42.664;23.240;2023-03-13T07:38:34;11.67;;;7.47;;
9459;SDS011;4768;42.664;23.240;2023-03-13T07:41:00;11.13;;;8.40;;
9459;SDS011;4768;42.664;23.240;2023-03-13T07:43:27;11.90;;;8.93;;
9459;SDS011;4768;42.664;23.240;2023-03-13T07:45:56;11.20;;;6.93;;
9459;SDS011;4768;42.664;23.240;2023-03-13T07:48:24;9.67;;;6.10;;
9459;SDS011;4768;42.664;23.240;2023-03-13T07:50:56;7.50;;;6.33;;
9459;SDS011;4768;42.664;23.240;2023-03-13T07:53:24;9.47;;;6.93;;
9459;SDS011;4768;42.664;23.240;2023-03-13T07:55:55;10.33;;;7.40;;
9459;SDS011;4768;42.664;23.240;2023-03-13T07:58:23;10.93;;;7.40;;
9459;SDS011;4768;42.664;23.240;2023-03-13T08:00:51;9.53;;;7.93;;
9459;SDS011;4768;42.664;23.240;2023-03-13T08:03:18;11.27;;;7.40;;
9459;SDS011;4768;42.664;23.240;2023-03-13T08:05:44;10.40;;;7.17;;
9459;SDS011;4768;42.664;23.240;2023-03-13T08:08:13;11.30;;;7.60;;
9459;SDS011;4768;42.664;23.240;2023-03-13T08:10:40;12.87;;;9.10;;
9459;SDS011;4768;42.664;23.240;2023-03-13T08:13:06;9.73;;;7.40;;
9459;SDS011;4768;42.664;23.240;2023-03-13T08:15:33;9.03;;;7.13;;
9459;SDS011;4768;42.664;23.240;2023-03-13T08:18:00;12.73;;;7.73;;
9459;SDS011;4768;42.664;23.240;2023-03-13T08:20:27;9.33;;;8.13;;
9459;SDS011;4768;42.664;23.240;2023-03-13T08:22:54;9.73;;;8.13;;
9459;SDS011;4768;42.664;23.240;2023-03-13T08:25:23;13.63;;;8.60;;
9459;SDS011;4768;42.664;23.240;2023-03-13T08:27:50;11.60;;;8.77;;
9459;SDS011;4768;42.664;23.240;2023-03-13T08:30:17;12.20;;;9.23;;
9459;SDS011;4768;42.664;23.240;2023-03-13T08:32:44;11.17;;;9.17;;
9459;SDS011;4768;42.664;23.240;2023-03-13T08:35:10;13.57;;;11.27;;
9459;SDS011;4768;42.664;23.240;2023-03-13T08:37:37;12.07;;;8.13;;
9459;SDS011;4768;42.664;23.240;2023-03-13T08:40:04;13.07;;;10.53;;
9459;SDS011;4768;42.664;23.240;2023-03-13T08:42:36;10.70;;;8.63;;
9459;SDS011;4768;42.664;23.240;2023-03-13T08:45:04;10.07;;;8.50;;
9459;SDS011;4768;42.664;23.240;2023-03-13T08:47:32;11.07;;;8.20;;
9459;SDS011;4768;42.664;23.240;2023-03-13T08:49:59;10.97;;;7.83;;
9459;SDS011;4768;42.664;23.240;2023-03-13T08:52:25;10.73;;;8.73;;
9459;SDS011;4768;42.664;23.240;2023-03-13T08:54:52;10.40;;;7.33;;
9459;SDS011;4768;42.664;23.240;2023-03-13T08:57:19;12.83;;;10.30;;
9459;SDS011;4768;42.664;23.240;2023-03-13T08:59:47;12.90;;;9.40;;
9459;SDS011;4768;42.664;23.240;2023-03-13T09:02:15;11.10;;;8.43;;
9459;SDS011;4768;42.664;23.240;2023-03-13T09:04:44;11.43;;;9.50;;
9459;SDS011;4768;42.664;23.240;2023-03-13T09:07:12;13.93;;;9.67;;
9459;SDS011;4768;42.664;23.240;2023-03-13T09:09:39;19.03;;;11.07;;
9459;SDS011;4768;42.664;23.240;2023-03-13T09:12:06;12.33;;;10.20;;
9459;SDS011;4768;42.664;23.240;2023-03-13T09:14:33;13.60;;;9.43;;
9459;SDS011;4768;42.664;23.240;2023-03-13T09:17:02;12.57;;;10.50;;
9459;SDS011;4768;42.664;23.240;2023-03-13T09:19:28;12.77;;;10.00;;
9459;SDS011;4768;42.664;23.240;2023-03-13T09:21:55;12.70;;;8.63;;
9459;SDS011;4768;42.664;23.240;2023-03-13T09:24:22;14.87;;;9.57;;
9459;SDS011;4768;42.664;23.240;2023-03-13T09:26:49;12.73;;;8.97;;
9459;SDS011;4768;42.664;23.240;2023-03-13T09:29:16;11.60;;;8.67;;
9459;SDS011;4768;42.664;23.240;2023-03-13T09:31:42;12.67;;;8.77;;
9459;SDS011;4768;42.664;23.240;2023-03-13T09:34:10;13.57;;;7.17;;
9459;SDS011;4768;42.664;23.240;2023-03-13T09:36:37;11.10;;;9.20;;
9459;SDS011;4768;42.664;23.240;2023-03-13T09:39:04;11.87;;;8.90;;
9459;SDS011;4768;42.664;23.240;2023-03-13T09:41:32;9.97;;;8.30;;
9459;SDS011;4768;42.664;23.240;2023-03-13T09:44:02;9.63;;;7.87;;
9459;SDS011;4768;42.664;23.240;2023-03-13T09:46:35;9.73;;;6.80;;
9459;SDS011;4768;42.664;23.240;2023-03-13T09:49:07;10.50;;;8.13;;
9459;SDS011;4768;42.664;23.240;2023-03-13T09:52:01;11.57;;;9.40;;
9459;SDS011;4768;42.664;23.240;2023-03-13T09:54:37;11.70;;;8.00;;
9459;SDS011;4768;42.664;23.240;2023-03-13T09:57:11;9.07;;;7.53;;
9459;SDS011;4768;42.664;23.240;2023-03-13T09:59:46;9.63;;;7.83;;
9459;SDS011;4768;42.664;23.240;2023-03-13T10:02:27;10.40;;;7.17;;
9459;SDS011;4768;42.664;23.240;2023-03-13T10:04:59;10.40;;;7.77;;
9459;SDS011;4768;42.664;23.240;2023-03-13T10:07:32;9.33;;;7.10;;
9459;SDS011;4768;42.664;23.240;2023-03-13T10:09:59;13.77;;;8.43;;
9459;SDS011;4768;42.664;23.240;2023-03-13T10:12:27;12.13;;;8.93;;
9459;SDS011;4768;42.664;23.240;2023-03-13T10:15:06;11.10;;;8.10;;
9459;SDS011;4768;42.664;23.240;2023-03-13T10:17:47;12.10;;;8.80;;
9459;SDS011;4768;42.664;23.240;2023-03-13T10:20:16;15.90;;;9.90;;
9459;SDS011;4768;42.664;23.240;2023-03-13T10:22:50;12.23;;;9.90;;
9459;SDS011;4768;42.664;23.240;2023-03-13T10:25:26;12.47;;;8.83;;
9459;SDS011;4768;42.664;23.240;2023-03-13T10:27:55;16.13;;;9.53;;
9459;SDS011;4768;42.664;23.240;2023-03-13T10:30:23;12.77;;;9.83;;
9459;SDS011;4768;42.664;23.240;2023-03-13T10:32:52;12.50;;;10.40;;
9459;SDS011;4768;42.664;23.240;2023-03-13T10:35:23;15.20;;;10.43;;
9459;SDS011;4768;42.664;23.240;2023-03-13T10:38:01;12.80;;;10.03;;
9459;SDS011;4768;42.664;23.240;2023-03-13T10:40:34;17.97;;;11.50;;
9459;SDS011;4768;42.664;23.240;2023-03-13T10:43:02;13.33;;;8.70;;
9459;SDS011;4768;42.664;23.240;2023-03-13T10:45:31;20.27;;;11.87;;
9459;SDS011;4768;42.664;23.240;2023-03-13T10:48:01;16.63;;;11.60;;
9459;SDS011;4768;42.664;23.240;2023-03-13T10:50:35;17.67;;;12.03;;
9459;SDS011;4768;42.664;23.240;2023-03-13T10:53:16;17.47;;;12.30;;
9459;SDS011;4768;42.664;23.240;2023-03-13T10:55:47;19.07;;;12.37;;
9459;SDS011;4768;42.664;23.240;2023-03-13T10:58:17;17.10;;;12.10;;
9459;SDS011;4768;42.664;23.240;2023-03-13T11:00:47;14.43;;;11.40;;
9459;SDS011;4768;42.664;23.240;2023-03-13T11:03:15;15.03;;;11.87;;
9459;SDS011;4768;42.664;23.240;2023-03-13T11:05:44;15.37;;;12.53;;
9459;SDS011;4768;42.664;23.240;2023-03-13T11:08:21;15.27;;;12.23;;
9459;SDS011;4768;42.664;23.240;2023-03-13T11:10:50;15.90;;;12.90;;
9459;SDS011;4768;42.664;23.240;2023-03-13T11:16:12;17.63;;;12.33;;
9459;SDS011;4768;42.664;23.240;2023-03-13T11:18:48;16.20;;;12.60;;
9459;SDS011;4768;42.664;23.240;2023-03-13T11:21:36;16.57;;;13.30;;
9459;SDS011;4768;42.664;23.240;2023-03-13T11:24:12;17.33;;;13.03;;
9459;SDS011;4768;42.664;23.240;2023-03-13T11:26:48;18.37;;;13.33;;
9459;SDS011;4768;42.664;23.240;2023-03-13T11:29:22;16.93;;;13.47;;
9459;SDS011;4768;42.664;23.240;2023-03-13T11:31:55;16.47;;;12.60;;
9459;SDS011;4768;42.664;23.240;2023-03-13T11:34:26;17.60;;;13.43;;
9459;SDS011;4768;42.664;23.240;2023-03-13T11:37:00;17.50;;;13.03;;
9459;SDS011;4768;42.664;23.240;2023-03-13T11:39:43;17.80;;;13.00;;
9459;SDS011;4768;42.664;23.240;2023-03-13T11:42:27;17.43;;;12.53;;
9459;SDS011;4768;42.664;23.240;2023-03-13T11:45:06;17.07;;;12.10;;
9459;SDS011;4768;42.664;23.240;2023-03-13T11:47:42;15.23;;;12.93;;
9459;SDS011;4768;42.664;23.240;2023-03-13T11:50:22;14.37;;;11.47;;
9459;SDS011;4768;42.664;23.240;2023-03-13T11:53:02;17.67;;;11.23;;
9459;SDS011;4768;42.664;23.240;2023-03-13T11:55:47;16.17;;;12.43;;
9459;SDS011;4768;42.664;23.240;2023-03-13T11:58:25;15.97;;;11.63;;
9459;SDS011;4768;42.664;23.240;2023-03-13T12:01:05;15.30;;;12.40;;
9459;SDS011;4768;42.664;23.240;2023-03-13T12:03:36;16.83;;;12.37;;
9459;SDS011;4768;42.664;23.240;2023-03-13T12:06:11;15.83;;;12.97;;
9459;SDS011;4768;42.664;23.240;2023-03-13T12:08:47;15.37;;;12.17;;
9459;SDS011;4768;42.664;23.240;2023-03-13T12:11:22;16.93;;;12.43;;
9459;SDS011;4768;42.664;23.240;2023-03-13T12:13:54;17.07;;;12.53;;
9459;SDS011;4768;42.664;23.240;2023-03-13T12:16:25;17.27;;;13.83;;
9459;SDS011;4768;42.664;23.240;2023-03-13T12:19:02;18.97;;;12.70;;
9459;SDS011;4768;42.664;23.240;2023-03-13T12:21:29;17.43;;;12.67;;
9459;SDS011;4768;42.664;23.240;2023-03-13T12:24:03;17.13;;;13.20;;
9459;SDS011;4768;42.664;23.240;2023-03-13T12:26:36;16.37;;;12.80;;
9459;SDS011;4768;42.664;23.240;2023-03-13T12:29:11;14.77;;;12.70;;
9459;SDS011;4768;42.664;23.240;2023-03-13T12:31:46;19.63;;;12.43;;
9459;SDS011;4768;42.664;23.240;2023-03-13T12:34:17;17.23;;;12.93;;
9459;SDS011;4768;42.664;23.240;2023-03-13T12:36:50;14.23;;;11.77;;
9459;SDS011;4768;42.664;23.240;2023-03-13T12:39:21;19.13;;;13.30;;
9459;SDS011;4768;42.664;23.240;2023-03-13T12:42:00;15.63;;;12.77;;
9459;SDS011;4768;42.664;23.240;2023-03-13T12:44:41;15.60;;;11.40;;
9459;SDS011;4768;42.664;23.240;2023-03-13T12:47:09;20.20;;;11.97;;
9459;SDS011;4768;42.664;23.240;2023-03-13T12:49:51;14.23;;;11.97;;
9459;SDS011;4768;42.664;23.240;2023-03-13T13:01:14;14.37;;;11.43;;
9459;SDS011;4768;42.664;23.240;2023-03-13T13:03:49;17.43;;;12.30;;
9459;SDS011;4768;42.664;23.240;2023-03-13T13:06:20;14.50;;;11.53;;
9459;SDS011;4768;42.664;23.240;2023-03-13T13:08:47;14.93;;;11.37;;
9459;SDS011;4768;42.664;23.240;2023-03-13T13:11:43;20.20;;;11.27;;
9459;SDS011;4768;42.664;23.240;2023-03-13T13:17:27;14.87;;;10.20;;
9459;SDS011;4768;42.664;23.240;2023-03-13T13:20:01;17.47;;;10.37;;
9459;SDS011;4768;42.664;23.240;2023-03-13T13:22:52;13.97;;;10.97;;
9459;SDS011;4768;42.664;23.240;2023-03-13T13:25:26;12.70;;;10.70;;
9459;SDS011;4768;42.664;23.240;2023-03-13T13:30:58;19.37;;;12.13;;
9459;SDS011;4768;42.664;23.240;2023-03-13T13:33:39;12.53;;;10.90;;
9459;SDS011;4768;42.664;23.240;2023-03-13T13:36:28;13.67;;;9.80;;
9459;SDS011;4768;42.664;23.240;2023-03-13T13:38:56;12.97;;;11.03;;
9459;SDS011;4768;42.664;23.240;2023-03-13T13:41:34;18.97;;;10.47;;
9459;SDS011;4768;42.664;23.240;2023-03-13T13:44:19;15.83;;;12.33;;
9459;SDS011;4768;42.664;23.240;2023-03-13T13:46:51;15.03;;;12.43;;
9459;SDS011;4768;42.664;23.240;2023-03-13T13:49:21;18.23;;;12.70;;
9459;SDS011;4768;42.664;23.240;2023-03-13T13:55:00;18.03;;;12.53;;
9459;SDS011;4768;42.664;23.240;2023-03-13T13:57:28;19.63;;;13.30;;
9459;SDS011;4768;42.664;23.240;2023-03-13T13:59:59;17.40;;;13.20;;
9459;SDS011;4768;42.664;23.240;2023-03-13T14:02:33;15.97;;;11.47;;
9459;SDS011;4768;42.664;23.240;2023-03-13T14:05:03;18.33;;;12.77;;
9459;SDS011;4768;42.664;23.240;2023-03-13T14:07:46;18.90;;;12.93;;
9459;SDS011;4768;42.664;23.240;2023-03-13T14:10:31;15.10;;;11.97;;
9459;SDS011;4768;42.664;23.240;2023-03-13T14:13:11;20.80;;;12.43;;
9459;SDS011;4768;42.664;23.240;2023-03-13T14:15:40;16.67;;;11.90;;
9459;SDS011;4768;42.664;23.240;2023-03-13T14:18:09;15.67;;;11.17;;
9459;SDS011;4768;42.664;23.240;2023-03-13T14:20:40;20.37;;;12.87;;
9459;SDS011;4768;42.664;23.240;2023-03-13T14:23:27;14.83;;;12.23;;
9459;SDS011;4768;42.664;23.240;2023-03-13T14:26:14;18.20;;;11.97;;
9459;SDS011;4768;42.664;23.240;2023-03-13T14:28:43;14.97;;;11.77;;
9459;SDS011;4768;42.664;23.240;2023-03-13T14:31:22;15.23;;;12.20;;
9459;SDS011;4768;42.664;23.240;2023-03-13T14:33:51;16.47;;;13.03;;
9459;SDS011;4768;42.664;23.240;2023-03-13T14:36:19;21.67;;;13.07;;
9459;SDS011;4768;42.664;23.240;2023-03-13T14:38:50;22.10;;;12.20;;
9459;SDS011;4768;42.664;23.240;2023-03-13T14:41:21;18.30;;;12.90;;
9459;SDS011;4768;42.664;23.240;2023-03-13T14:43:51;15.37;;;12.17;;
9459;SDS011;4768;42.664;23.240;2023-03-13T14:46:21;14.30;;;11.23;;
9459;SDS011;4768;42.664;23.240;2023-03-13T14:48:54;18.37;;;12.13;;
9459;SDS011;4768;42.664;23.240;2023-03-13T14:51:23;15.93;;;12.40;;
9459;SDS011;4768;42.664;23.240;2023-03-13T14:53:52;13.53;;;11.50;;
9459;SDS011;4768;42.664;23.240;2023-03-13T14:56:28;20.13;;;12.53;;
9459;SDS011;4768;42.664;23.240;2023-03-13T14:59:05;19.93;;;12.07;;
9459;SDS011;4768;42.664;23.240;2023-03-13T15:01:33;18.27;;;11.77;;
9459;SDS011;4768;42.664;23.240;2023-03-13T15:04:00;15.03;;;11.80;;
9459;SDS011;4768;42.664;23.240;2023-03-13T15:06:28;16.17;;;12.50;;
9459;SDS011;4768;42.664;23.240;2023-03-13T15:09:14;20.57;;;12.17;;
9459;SDS011;4768;42.664;23.240;2023-03-13T15:11:53;17.90;;;12.87;;
9459;SDS011;4768;42.664;23.240;2023-03-13T15:14:32;18.93;;;12.40;;
9459;SDS011;4768;42.664;23.240;2023-03-13T15:17:00;20.13;;;13.27;;
9459;SDS011;4768;42.664;23.240;2023-03-13T15:19:28;17.80;;;11.93;;
9459;SDS011;4768;42.664;23.240;2023-03-13T15:21:56;13.57;;;11.23;;
9459;SDS011;4768;42.664;23.240;2023-03-13T15:24:24;17.20;;;11.93;;
9459;SDS011;4768;42.664;23.240;2023-03-13T15:26:50;20.63;;;12.83;;